sensor_id;sensor_type;location;lat;lon;timestamp;temperature;humidity
9157;DHT22;4613;48.392;9.998;2023-07-16T00:01:04;23.30;99.90
9157;DHT22;4613;48.392;9.998;2023-07-16T00:03:54;22.90;99.90
9157;DHT22;4613;48.392;9.998;2023-07-16T00:06:45;22.20;99.90
9157;DHT22;4613;48.392;9.998;2023-07-16T00:09:35;21.60;99.90
9157;DHT22;4613;48.392;9.998;2023-07-16T00:12:24;21.90;99.90
9157;DHT22;4613;48.392;9.998;2023-07-16T00:15:13;21.80;99.90
9157;DHT22;4613;48.392;9.998;2023-07-16T00:18:02;21.50;99.90
9157;DHT22;4613;48.392;9.998;2023-07-16T00:20:52;21.30;99.90
9157;DHT22;4613;48.392;9.998;2023-07-16T00:23:41;21.60;99.90
9157;DHT22;4613;48.392;9.998;2023-07-16T00:26:30;21.50;99.90
9157;DHT22;4613;48.392;9.998;2023-07-16T00:29:19;21.70;99.90
9157;DHT22;4613;48.392;9.998;2023-07-16T00:32:08;22.10;99.90
9157;DHT22;4613;48.392;9.998;2023-07-16T00:34:57;21.60;99.90
9157;DHT22;4613;48.392;9.998;2023-07-16T00:37:46;21.70;99.90
9157;DHT22;4613;48.392;9.998;2023-07-16T00:40:36;21.80;99.90
9157;DHT22;4613;48.392;9.998;2023-07-16T00:43:25;21.50;99.90
9157;DHT22;4613;48.392;9.998;2023-07-16T00:46:15;21.00;99.90
9157;DHT22;4613;48.392;9.998;2023-07-16T00:49:04;21.00;99.90
9157;DHT22;4613;48.392;9.998;2023-07-16T00:51:54;20.80;99.90
9157;DHT22;4613;48.392;9.998;2023-07-16T00:54:44;20.70;99.90
9157;DHT22;4613;48.392;9.998;2023-07-16T00:57:34;21.30;99.90
9157;DHT22;4613;48.392;9.998;2023-07-16T01:00:24;20.90;99.90
9157;DHT22;4613;48.392;9.998;2023-07-16T01:03:14;20.90;99.90
9157;DHT22;4613;48.392;9.998;2023-07-16T01:09:08;21.30;99.90
9157;DHT22;4613;48.392;9.998;2023-07-16T01:12:00;21.40;99.90
9157;DHT22;4613;48.392;9.998;2023-07-16T01:14:51;22.30;99.90
9157;DHT22;4613;48.392;9.998;2023-07-16T01:17:41;22.40;99.90
9157;DHT22;4613;48.392;9.998;2023-07-16T01:20:30;22.80;99.90
9157;DHT22;4613;48.392;9.998;2023-07-16T01:23:56;22.70;99.90
9157;DHT22;4613;48.392;9.998;2023-07-16T01:27:18;22.90;99.90
9157;DHT22;4613;48.392;9.998;2023-07-16T01:30:11;23.10;99.90
9157;DHT22;4613;48.392;9.998;2023-07-16T01:33:05;23.00;99.90
9157;DHT22;4613;48.392;9.998;2023-07-16T01:35:56;22.60;99.90
9157;DHT22;4613;48.392;9.998;2023-07-16T01:38:46;22.40;99.90
9157;DHT22;4613;48.392;9.998;2023-07-16T01:41:36;22.70;99.90
9157;DHT22;4613;48.392;9.998;2023-07-16T01:44:26;22.70;99.90
9157;DHT22;4613;48.392;9.998;2023-07-16T01:47:30;22.60;99.90
9157;DHT22;4613;48.392;9.998;2023-07-16T01:50:24;22.70;99.90
9157;DHT22;4613;48.392;9.998;2023-07-16T01:53:14;22.60;99.90
9157;DHT22;4613;48.392;9.998;2023-07-16T01:56:03;22.50;99.90
9157;DHT22;4613;48.392;9.998;2023-07-16T01:58:52;22.20;99.90
9157;DHT22;4613;48.392;9.998;2023-07-16T02:01:41;22.30;99.90
9157;DHT22;4613;48.392;9.998;2023-07-16T02:04:30;22.30;99.90
9157;DHT22;4613;48.392;9.998;2023-07-16T02:07:21;22.00;99.90
9157;DHT22;4613;48.392;9.998;2023-07-16T02:10:12;22.10;99.90
9157;DHT22;4613;48.392;9.998;2023-07-16T02:13:01;22.40;99.90
9157;DHT22;4613;48.392;9.998;2023-07-16T02:15:50;21.80;99.90
9157;DHT22;4613;48.392;9.998;2023-07-16T02:18:40;21.20;99.90
9157;DHT22;4613;48.392;9.998;2023-07-16T02:21:29;20.70;99.90
9157;DHT22;4613;48.392;9.998;2023-07-16T02:24:18;21.50;99.90
9157;DHT22;4613;48.392;9.998;2023-07-16T02:27:07;20.70;99.90
9157;DHT22;4613;48.392;9.998;2023-07-16T02:29:57;20.20;99.90
9157;DHT22;4613;48.392;9.998;2023-07-16T02:32:46;20.60;99.90
9157;DHT22;4613;48.392;9.998;2023-07-16T02:35:35;20.50;99.90
9157;DHT22;4613;48.392;9.998;2023-07-16T02:38:25;19.90;99.90
9157;DHT22;4613;48.392;9.998;2023-07-16T02:41:14;20.20;99.90
9157;DHT22;4613;48.392;9.998;2023-07-16T02:44:05;20.30;99.90
9157;DHT22;4613;48.392;9.998;2023-07-16T02:46:55;20.60;99.90
9157;DHT22;4613;48.392;9.998;2023-07-16T02:49:44;20.90;99.90
9157;DHT22;4613;48.392;9.998;2023-07-16T02:52:34;20.80;99.90
9157;DHT22;4613;48.392;9.998;2023-07-16T02:55:23;21.00;99.90
9157;DHT22;4613;48.392;9.998;2023-07-16T02:58:12;21.50;99.90
9157;DHT22;4613;48.392;9.998;2023-07-16T03:01:01;21.70;99.90
9157;DHT22;4613;48.392;9.998;2023-07-16T03:03:51;20.70;99.90
9157;DHT22;4613;48.392;9.998;2023-07-16T03:06:40;19.80;99.90
9157;DHT22;4613;48.392;9.998;2023-07-16T03:09:29;20.10;99.90
9157;DHT22;4613;48.392;9.998;2023-07-16T03:12:18;20.80;99.90
9157;DHT22;4613;48.392;9.998;2023-07-16T03:15:08;20.30;99.90
9157;DHT22;4613;48.392;9.998;2023-07-16T03:17:57;20.60;99.90
9157;DHT22;4613;48.392;9.998;2023-07-16T03:20:47;20.00;99.90
9157;DHT22;4613;48.392;9.998;2023-07-16T03:23:36;20.30;99.90
9157;DHT22;4613;48.392;9.998;2023-07-16T03:26:26;20.20;99.90
9157;DHT22;4613;48.392;9.998;2023-07-16T03:29:15;20.10;99.90
9157;DHT22;4613;48.392;9.998;2023-07-16T03:32:06;20.20;99.90
9157;DHT22;4613;48.392;9.998;2023-07-16T03:34:56;20.90;99.90
9157;DHT22;4613;48.392;9.998;2023-07-16T03:37:48;21.10;99.90
9157;DHT22;4613;48.392;9.998;2023-07-16T03:40:38;21.20;99.90
9157;DHT22;4613;48.392;9.998;2023-07-16T03:43:27;21.40;99.90
9157;DHT22;4613;48.392;9.998;2023-07-16T03:46:23;21.40;99.90
9157;DHT22;4613;48.392;9.998;2023-07-16T03:49:12;21.50;99.90
9157;DHT22;4613;48.392;9.998;2023-07-16T03:52:02;21.50;99.90
9157;DHT22;4613;48.392;9.998;2023-07-16T03:54:52;21.40;99.90
9157;DHT22;4613;48.392;9.998;2023-07-16T03:57:42;21.10;99.90
9157;DHT22;4613;48.392;9.998;2023-07-16T04:00:31;21.40;99.90
9157;DHT22;4613;48.392;9.998;2023-07-16T04:03:21;21.20;99.90
9157;DHT22;4613;48.392;9.998;2023-07-16T04:06:10;21.30;99.90
9157;DHT22;4613;48.392;9.998;2023-07-16T04:09:00;21.20;99.90
9157;DHT22;4613;48.392;9.998;2023-07-16T04:11:49;21.50;99.90
9157;DHT22;4613;48.392;9.998;2023-07-16T04:14:39;21.70;99.90
9157;DHT22;4613;48.392;9.998;2023-07-16T04:17:28;21.80;99.90
9157;DHT22;4613;48.392;9.998;2023-07-16T04:20:17;21.50;99.90
9157;DHT22;4613;48.392;9.998;2023-07-16T04:23:06;21.40;99.90
9157;DHT22;4613;48.392;9.998;2023-07-16T04:25:55;21.20;99.90
9157;DHT22;4613;48.392;9.998;2023-07-16T04:28:45;21.30;99.90
9157;DHT22;4613;48.392;9.998;2023-07-16T04:31:34;20.60;99.90
9157;DHT22;4613;48.392;9.998;2023-07-16T04:34:23;20.60;99.90
9157;DHT22;4613;48.392;9.998;2023-07-16T04:37:12;20.90;99.90
9157;DHT22;4613;48.392;9.998;2023-07-16T04:40:01;21.00;99.90
9157;DHT22;4613;48.392;9.998;2023-07-16T04:42:51;21.20;99.90
9157;DHT22;4613;48.392;9.998;2023-07-16T04:45:40;21.60;99.90
9157;DHT22;4613;48.392;9.998;2023-07-16T04:48:29;21.70;99.90
9157;DHT22;4613;48.392;9.998;2023-07-16T04:51:18;21.80;99.90
9157;DHT22;4613;48.392;9.998;2023-07-16T04:54:08;21.70;99.90
9157;DHT22;4613;48.392;9.998;2023-07-16T04:56:58;21.70;99.90
9157;DHT22;4613;48.392;9.998;2023-07-16T04:59:47;21.70;99.90
9157;DHT22;4613;48.392;9.998;2023-07-16T05:02:36;21.40;99.90
9157;DHT22;4613;48.392;9.998;2023-07-16T05:05:25;21.60;99.90
9157;DHT22;4613;48.392;9.998;2023-07-16T05:08:15;21.70;99.90
9157;DHT22;4613;48.392;9.998;2023-07-16T05:11:03;22.00;99.90
9157;DHT22;4613;48.392;9.998;2023-07-16T05:13:53;21.80;99.90
9157;DHT22;4613;48.392;9.998;2023-07-16T05:16:42;21.90;99.90
9157;DHT22;4613;48.392;9.998;2023-07-16T05:19:31;21.90;99.90
9157;DHT22;4613;48.392;9.998;2023-07-16T05:22:20;20.40;99.90
9157;DHT22;4613;48.392;9.998;2023-07-16T05:25:10;20.10;99.90
9157;DHT22;4613;48.392;9.998;2023-07-16T05:27:59;20.10;99.90
9157;DHT22;4613;48.392;9.998;2023-07-16T05:30:57;20.20;99.90
9157;DHT22;4613;48.392;9.998;2023-07-16T05:33:47;20.20;99.90
9157;DHT22;4613;48.392;9.998;2023-07-16T05:36:36;20.00;99.90
9157;DHT22;4613;48.392;9.998;2023-07-16T05:39:25;19.90;99.90
9157;DHT22;4613;48.392;9.998;2023-07-16T05:42:14;19.70;99.90
9157;DHT22;4613;48.392;9.998;2023-07-16T05:45:05;19.20;99.90
9157;DHT22;4613;48.392;9.998;2023-07-16T05:47:55;19.70;99.90
9157;DHT22;4613;48.392;9.998;2023-07-16T05:50:44;19.70;99.90
9157;DHT22;4613;48.392;9.998;2023-07-16T05:53:34;20.10;99.90
9157;DHT22;4613;48.392;9.998;2023-07-16T05:56:23;20.60;99.90
9157;DHT22;4613;48.392;9.998;2023-07-16T05:59:13;20.10;99.90
9157;DHT22;4613;48.392;9.998;2023-07-16T06:02:04;19.70;99.90
9157;DHT22;4613;48.392;9.998;2023-07-16T06:04:54;19.60;99.90
9157;DHT22;4613;48.392;9.998;2023-07-16T06:07:43;19.00;99.90
9157;DHT22;4613;48.392;9.998;2023-07-16T06:10:34;19.20;99.90
9157;DHT22;4613;48.392;9.998;2023-07-16T06:13:23;19.50;99.90
9157;DHT22;4613;48.392;9.998;2023-07-16T06:16:12;19.70;99.90
9157;DHT22;4613;48.392;9.998;2023-07-16T06:19:01;19.80;99.90
9157;DHT22;4613;48.392;9.998;2023-07-16T06:21:51;19.50;99.90
9157;DHT22;4613;48.392;9.998;2023-07-16T06:24:40;19.70;99.90
9157;DHT22;4613;48.392;9.998;2023-07-16T06:27:29;19.10;99.90
9157;DHT22;4613;48.392;9.998;2023-07-16T06:30:18;19.10;99.90
9157;DHT22;4613;48.392;9.998;2023-07-16T06:33:07;19.90;99.90
9157;DHT22;4613;48.392;9.998;2023-07-16T06:35:56;20.00;99.90
9157;DHT22;4613;48.392;9.998;2023-07-16T06:38:45;19.60;99.90
9157;DHT22;4613;48.392;9.998;2023-07-16T06:41:36;19.90;99.90
9157;DHT22;4613;48.392;9.998;2023-07-16T06:44:25;19.90;99.90
9157;DHT22;4613;48.392;9.998;2023-07-16T06:47:15;20.00;99.90
9157;DHT22;4613;48.392;9.998;2023-07-16T06:50:05;20.30;99.90
9157;DHT22;4613;48.392;9.998;2023-07-16T06:52:54;20.20;99.90
9157;DHT22;4613;48.392;9.998;2023-07-16T06:55:43;19.80;99.90
9157;DHT22;4613;48.392;9.998;2023-07-16T06:58:33;19.50;99.90
9157;DHT22;4613;48.392;9.998;2023-07-16T07:01:22;19.50;99.90
9157;DHT22;4613;48.392;9.998;2023-07-16T07:04:11;19.70;99.90
9157;DHT22;4613;48.392;9.998;2023-07-16T07:07:01;20.00;99.90
9157;DHT22;4613;48.392;9.998;2023-07-16T07:09:50;19.70;99.90
9157;DHT22;4613;48.392;9.998;2023-07-16T07:12:39;20.00;99.90
9157;DHT22;4613;48.392;9.998;2023-07-16T07:15:28;20.20;99.90
9157;DHT22;4613;48.392;9.998;2023-07-16T07:18:17;20.20;99.90
9157;DHT22;4613;48.392;9.998;2023-07-16T07:21:07;20.40;99.90
9157;DHT22;4613;48.392;9.998;2023-07-16T07:23:56;20.30;99.90
9157;DHT22;4613;48.392;9.998;2023-07-16T07:26:45;19.80;99.90
9157;DHT22;4613;48.392;9.998;2023-07-16T07:29:35;20.10;99.90
9157;DHT22;4613;48.392;9.998;2023-07-16T07:32:24;20.30;99.90
9157;DHT22;4613;48.392;9.998;2023-07-16T07:35:13;19.50;99.90
9157;DHT22;4613;48.392;9.998;2023-07-16T07:38:02;19.40;99.90
9157;DHT22;4613;48.392;9.998;2023-07-16T07:40:51;19.50;99.90
9157;DHT22;4613;48.392;9.998;2023-07-16T07:43:40;19.50;99.90
9157;DHT22;4613;48.392;9.998;2023-07-16T07:46:29;19.80;99.90
9157;DHT22;4613;48.392;9.998;2023-07-16T07:49:18;20.20;99.90
9157;DHT22;4613;48.392;9.998;2023-07-16T07:52:08;20.10;99.90
9157;DHT22;4613;48.392;9.998;2023-07-16T07:54:57;21.50;99.90
9157;DHT22;4613;48.392;9.998;2023-07-16T07:57:47;22.50;99.90
9157;DHT22;4613;48.392;9.998;2023-07-16T08:00:36;21.20;99.90
9157;DHT22;4613;48.392;9.998;2023-07-16T08:03:26;22.30;99.90
9157;DHT22;4613;48.392;9.998;2023-07-16T08:06:15;21.50;99.90
9157;DHT22;4613;48.392;9.998;2023-07-16T08:09:04;21.90;99.90
9157;DHT22;4613;48.392;9.998;2023-07-16T08:11:54;22.40;99.90
9157;DHT22;4613;48.392;9.998;2023-07-16T08:14:43;22.00;99.90
9157;DHT22;4613;48.392;9.998;2023-07-16T08:17:32;22.20;99.90
9157;DHT22;4613;48.392;9.998;2023-07-16T08:20:21;22.80;99.90
9157;DHT22;4613;48.392;9.998;2023-07-16T08:23:10;22.30;99.90
9157;DHT22;4613;48.392;9.998;2023-07-16T08:26:00;22.60;99.90
9157;DHT22;4613;48.392;9.998;2023-07-16T08:28:49;21.60;99.90
9157;DHT22;4613;48.392;9.998;2023-07-16T08:31:38;21.00;99.90
9157;DHT22;4613;48.392;9.998;2023-07-16T08:34:28;21.50;99.90
9157;DHT22;4613;48.392;9.998;2023-07-16T08:37:17;21.90;99.90
9157;DHT22;4613;48.392;9.998;2023-07-16T08:40:07;22.60;99.90
9157;DHT22;4613;48.392;9.998;2023-07-16T08:42:59;23.10;99.90
9157;DHT22;4613;48.392;9.998;2023-07-16T08:45:49;21.60;99.90
9157;DHT22;4613;48.392;9.998;2023-07-16T08:48:39;21.80;99.90
9157;DHT22;4613;48.392;9.998;2023-07-16T08:51:29;21.70;99.90
9157;DHT22;4613;48.392;9.998;2023-07-16T08:54:19;22.30;99.90
9157;DHT22;4613;48.392;9.998;2023-07-16T08:57:08;23.00;99.90
9157;DHT22;4613;48.392;9.998;2023-07-16T08:59:58;23.10;99.90
9157;DHT22;4613;48.392;9.998;2023-07-16T09:02:48;24.10;99.90
9157;DHT22;4613;48.392;9.998;2023-07-16T09:05:39;24.70;99.90
9157;DHT22;4613;48.392;9.998;2023-07-16T09:08:28;24.20;99.90
9157;DHT22;4613;48.392;9.998;2023-07-16T09:11:17;25.10;99.90
9157;DHT22;4613;48.392;9.998;2023-07-16T09:14:10;24.80;99.90
9157;DHT22;4613;48.392;9.998;2023-07-16T09:16:59;24.40;99.90
9157;DHT22;4613;48.392;9.998;2023-07-16T09:19:48;23.90;99.90
9157;DHT22;4613;48.392;9.998;2023-07-16T09:22:37;23.70;99.90
9157;DHT22;4613;48.392;9.998;2023-07-16T09:25:30;24.20;99.90
9157;DHT22;4613;48.392;9.998;2023-07-16T09:28:20;24.40;99.90
9157;DHT22;4613;48.392;9.998;2023-07-16T09:31:09;24.50;99.90
9157;DHT22;4613;48.392;9.998;2023-07-16T09:33:59;24.50;99.90
9157;DHT22;4613;48.392;9.998;2023-07-16T09:36:49;23.50;99.90
9157;DHT22;4613;48.392;9.998;2023-07-16T09:39:39;23.80;99.90
9157;DHT22;4613;48.392;9.998;2023-07-16T09:42:29;23.70;99.90
9157;DHT22;4613;48.392;9.998;2023-07-16T09:45:19;23.80;99.90
9157;DHT22;4613;48.392;9.998;2023-07-16T09:48:10;23.90;99.90
9157;DHT22;4613;48.392;9.998;2023-07-16T09:50:59;23.70;99.90
9157;DHT22;4613;48.392;9.998;2023-07-16T09:53:50;23.90;99.90
9157;DHT22;4613;48.392;9.998;2023-07-16T09:56:54;24.20;99.90
9157;DHT22;4613;48.392;9.998;2023-07-16T09:59:44;24.20;99.90
9157;DHT22;4613;48.392;9.998;2023-07-16T10:02:36;24.20;99.90
9157;DHT22;4613;48.392;9.998;2023-07-16T10:05:27;23.90;99.90
9157;DHT22;4613;48.392;9.998;2023-07-16T10:08:18;23.00;99.90
9157;DHT22;4613;48.392;9.998;2023-07-16T10:11:16;23.20;99.90
9157;DHT22;4613;48.392;9.998;2023-07-16T10:14:06;22.70;99.90
9157;DHT22;4613;48.392;9.998;2023-07-16T10:17:01;22.70;99.90
9157;DHT22;4613;48.392;9.998;2023-07-16T10:22:49;23.10;99.90
9157;DHT22;4613;48.392;9.998;2023-07-16T10:25:38;23.40;99.90
9157;DHT22;4613;48.392;9.998;2023-07-16T10:28:27;23.90;99.90
9157;DHT22;4613;48.392;9.998;2023-07-16T10:31:24;23.90;99.90
9157;DHT22;4613;48.392;9.998;2023-07-16T10:34:13;24.00;99.90
9157;DHT22;4613;48.392;9.998;2023-07-16T10:37:02;24.00;99.90
9157;DHT22;4613;48.392;9.998;2023-07-16T10:39:54;23.90;99.90
9157;DHT22;4613;48.392;9.998;2023-07-16T10:42:45;23.90;99.90
9157;DHT22;4613;48.392;9.998;2023-07-16T10:45:35;23.90;99.90
9157;DHT22;4613;48.392;9.998;2023-07-16T10:48:25;24.40;99.90
9157;DHT22;4613;48.392;9.998;2023-07-16T10:51:15;24.50;99.90
9157;DHT22;4613;48.392;9.998;2023-07-16T10:54:05;24.20;99.90
9157;DHT22;4613;48.392;9.998;2023-07-16T10:56:54;23.90;99.90
9157;DHT22;4613;48.392;9.998;2023-07-16T10:59:44;23.80;99.90
9157;DHT22;4613;48.392;9.998;2023-07-16T11:02:34;23.70;99.90
9157;DHT22;4613;48.392;9.998;2023-07-16T11:05:23;23.60;99.90
9157;DHT22;4613;48.392;9.998;2023-07-16T11:08:22;23.50;99.90
9157;DHT22;4613;48.392;9.998;2023-07-16T11:11:11;23.20;99.90
9157;DHT22;4613;48.392;9.998;2023-07-16T11:14:09;22.90;99.90
9157;DHT22;4613;48.392;9.998;2023-07-16T11:17:04;22.30;99.90
9157;DHT22;4613;48.392;9.998;2023-07-16T11:19:55;23.00;99.90
9157;DHT22;4613;48.392;9.998;2023-07-16T11:22:46;23.10;99.90
9157;DHT22;4613;48.392;9.998;2023-07-16T11:25:36;23.60;99.90
9157;DHT22;4613;48.392;9.998;2023-07-16T11:28:35;23.90;99.90
9157;DHT22;4613;48.392;9.998;2023-07-16T11:31:25;24.10;99.90
9157;DHT22;4613;48.392;9.998;2023-07-16T11:34:14;23.80;99.90
9157;DHT22;4613;48.392;9.998;2023-07-16T11:37:08;23.00;99.90
9157;DHT22;4613;48.392;9.998;2023-07-16T11:40:01;23.30;99.90
9157;DHT22;4613;48.392;9.998;2023-07-16T11:42:51;23.70;99.90
9157;DHT22;4613;48.392;9.998;2023-07-16T11:45:47;23.80;99.90
9157;DHT22;4613;48.392;9.998;2023-07-16T11:48:38;24.20;99.90
9157;DHT22;4613;48.392;9.998;2023-07-16T11:51:27;23.80;99.90
9157;DHT22;4613;48.392;9.998;2023-07-16T11:54:16;24.70;99.90
9157;DHT22;4613;48.392;9.998;2023-07-16T11:57:06;25.00;99.90
9157;DHT22;4613;48.392;9.998;2023-07-16T11:59:56;24.30;99.90
9157;DHT22;4613;48.392;9.998;2023-07-16T12:02:45;24.90;99.90
9157;DHT22;4613;48.392;9.998;2023-07-16T12:05:40;25.30;99.90
9157;DHT22;4613;48.392;9.998;2023-07-16T12:08:29;25.40;99.90
9157;DHT22;4613;48.392;9.998;2023-07-16T12:11:18;25.10;99.90
9157;DHT22;4613;48.392;9.998;2023-07-16T12:14:07;24.40;99.90
9157;DHT22;4613;48.392;9.998;2023-07-16T12:16:57;24.60;99.90
9157;DHT22;4613;48.392;9.998;2023-07-16T12:19:47;24.90;99.90
9157;DHT22;4613;48.392;9.998;2023-07-16T12:22:36;24.90;99.90
9157;DHT22;4613;48.392;9.998;2023-07-16T12:25:26;25.00;99.90
9157;DHT22;4613;48.392;9.998;2023-07-16T12:28:15;25.20;99.90
9157;DHT22;4613;48.392;9.998;2023-07-16T12:31:04;25.40;99.90
9157;DHT22;4613;48.392;9.998;2023-07-16T12:33:53;25.20;99.90
9157;DHT22;4613;48.392;9.998;2023-07-16T12:36:43;24.80;99.90
9157;DHT22;4613;48.392;9.998;2023-07-16T12:39:32;24.10;99.90
9157;DHT22;4613;48.392;9.998;2023-07-16T12:42:22;24.40;99.90
9157;DHT22;4613;48.392;9.998;2023-07-16T12:45:11;23.90;99.90
9157;DHT22;4613;48.392;9.998;2023-07-16T12:48:00;23.70;99.90
9157;DHT22;4613;48.392;9.998;2023-07-16T12:50:51;24.10;99.90
9157;DHT22;4613;48.392;9.998;2023-07-16T12:53:40;23.80;99.90
9157;DHT22;4613;48.392;9.998;2023-07-16T12:56:30;23.60;99.90
9157;DHT22;4613;48.392;9.998;2023-07-16T12:59:20;23.90;99.90
9157;DHT22;4613;48.392;9.998;2023-07-16T13:02:09;24.50;99.90
9157;DHT22;4613;48.392;9.998;2023-07-16T13:04:58;24.30;99.90
9157;DHT22;4613;48.392;9.998;2023-07-16T13:07:47;24.70;99.90
9157;DHT22;4613;48.392;9.998;2023-07-16T13:10:37;24.90;99.90
9157;DHT22;4613;48.392;9.998;2023-07-16T13:13:26;24.70;99.90
9157;DHT22;4613;48.392;9.998;2023-07-16T13:16:16;25.10;99.90
9157;DHT22;4613;48.392;9.998;2023-07-16T13:19:05;25.10;99.90
9157;DHT22;4613;48.392;9.998;2023-07-16T13:21:55;25.10;99.90
9157;DHT22;4613;48.392;9.998;2023-07-16T13:24:44;23.90;99.90
9157;DHT22;4613;48.392;9.998;2023-07-16T13:27:34;23.70;99.90
9157;DHT22;4613;48.392;9.998;2023-07-16T13:30:24;23.90;99.90
9157;DHT22;4613;48.392;9.998;2023-07-16T13:33:14;24.00;99.90
9157;DHT22;4613;48.392;9.998;2023-07-16T13:36:05;24.10;99.90
9157;DHT22;4613;48.392;9.998;2023-07-16T13:38:54;24.80;99.90
9157;DHT22;4613;48.392;9.998;2023-07-16T13:41:44;24.30;99.90
9157;DHT22;4613;48.392;9.998;2023-07-16T13:44:33;24.60;99.90
9157;DHT22;4613;48.392;9.998;2023-07-16T13:47:22;24.80;99.90
9157;DHT22;4613;48.392;9.998;2023-07-16T13:50:12;25.30;99.90
9157;DHT22;4613;48.392;9.998;2023-07-16T13:53:01;25.40;99.90
9157;DHT22;4613;48.392;9.998;2023-07-16T13:55:51;25.50;99.90
9157;DHT22;4613;48.392;9.998;2023-07-16T13:58:43;25.20;99.90
9157;DHT22;4613;48.392;9.998;2023-07-16T14:01:37;24.70;99.90
9157;DHT22;4613;48.392;9.998;2023-07-16T14:04:27;24.90;99.90
9157;DHT22;4613;48.392;9.998;2023-07-16T14:07:17;24.90;99.90
9157;DHT22;4613;48.392;9.998;2023-07-16T14:10:07;24.10;99.90
9157;DHT22;4613;48.392;9.998;2023-07-16T14:12:56;24.20;99.90
9157;DHT22;4613;48.392;9.998;2023-07-16T14:15:46;24.50;99.90
9157;DHT22;4613;48.392;9.998;2023-07-16T14:18:35;24.40;99.90
9157;DHT22;4613;48.392;9.998;2023-07-16T14:21:25;24.30;99.90
9157;DHT22;4613;48.392;9.998;2023-07-16T14:24:15;24.30;99.90
9157;DHT22;4613;48.392;9.998;2023-07-16T14:27:06;24.70;99.90
9157;DHT22;4613;48.392;9.998;2023-07-16T14:29:55;24.50;99.90
9157;DHT22;4613;48.392;9.998;2023-07-16T14:32:45;23.90;99.90
9157;DHT22;4613;48.392;9.998;2023-07-16T14:35:34;23.90;99.90
9157;DHT22;4613;48.392;9.998;2023-07-16T14:38:24;23.70;99.90
9157;DHT22;4613;48.392;9.998;2023-07-16T14:41:20;24.10;99.90
9157;DHT22;4613;48.392;9.998;2023-07-16T14:44:09;23.90;99.90
9157;DHT22;4613;48.392;9.998;2023-07-16T14:46:59;23.60;99.90
9157;DHT22;4613;48.392;9.998;2023-07-16T14:49:48;23.70;99.90
9157;DHT22;4613;48.392;9.998;2023-07-16T14:52:38;24.10;99.90
9157;DHT22;4613;48.392;9.998;2023-07-16T14:55:27;24.50;99.90
9157;DHT22;4613;48.392;9.998;2023-07-16T14:58:19;24.80;99.90
9157;DHT22;4613;48.392;9.998;2023-07-16T15:01:08;24.70;99.90
9157;DHT22;4613;48.392;9.998;2023-07-16T15:03:58;24.50;99.90
9157;DHT22;4613;48.392;9.998;2023-07-16T15:06:48;24.60;99.90
9157;DHT22;4613;48.392;9.998;2023-07-16T15:09:39;24.30;99.90
9157;DHT22;4613;48.392;9.998;2023-07-16T15:12:28;24.60;99.90
9157;DHT22;4613;48.392;9.998;2023-07-16T15:15:17;24.10;99.90
9157;DHT22;4613;48.392;9.998;2023-07-16T15:18:07;24.20;99.90
9157;DHT22;4613;48.392;9.998;2023-07-16T15:20:57;24.50;99.90
9157;DHT22;4613;48.392;9.998;2023-07-16T15:23:47;24.60;99.90
9157;DHT22;4613;48.392;9.998;2023-07-16T15:26:37;24.60;99.90
9157;DHT22;4613;48.392;9.998;2023-07-16T15:29:27;24.10;99.90
9157;DHT22;4613;48.392;9.998;2023-07-16T15:32:17;24.00;99.90
9157;DHT22;4613;48.392;9.998;2023-07-16T15:35:06;24.20;99.90
9157;DHT22;4613;48.392;9.998;2023-07-16T15:37:57;24.90;99.90
9157;DHT22;4613;48.392;9.998;2023-07-16T15:40:50;25.20;99.90
9157;DHT22;4613;48.392;9.998;2023-07-16T15:43:39;25.10;99.90
9157;DHT22;4613;48.392;9.998;2023-07-16T15:46:30;25.00;99.90
9157;DHT22;4613;48.392;9.998;2023-07-16T15:49:19;25.00;99.90
9157;DHT22;4613;48.392;9.998;2023-07-16T15:52:08;25.20;99.90
9157;DHT22;4613;48.392;9.998;2023-07-16T15:54:58;25.30;99.90
9157;DHT22;4613;48.392;9.998;2023-07-16T15:57:52;25.30;99.90
9157;DHT22;4613;48.392;9.998;2023-07-16T16:00:42;25.30;99.90
9157;DHT22;4613;48.392;9.998;2023-07-16T16:03:32;25.20;99.90
9157;DHT22;4613;48.392;9.998;2023-07-16T16:06:21;24.90;99.90
9157;DHT22;4613;48.392;9.998;2023-07-16T16:09:10;24.90;99.90
9157;DHT22;4613;48.392;9.998;2023-07-16T16:11:59;24.90;99.90
9157;DHT22;4613;48.392;9.998;2023-07-16T16:14:52;25.10;99.90
9157;DHT22;4613;48.392;9.998;2023-07-16T16:17:43;24.70;99.90
9157;DHT22;4613;48.392;9.998;2023-07-16T16:20:32;24.70;99.90
9157;DHT22;4613;48.392;9.998;2023-07-16T16:23:22;24.60;99.90
9157;DHT22;4613;48.392;9.998;2023-07-16T16:26:11;24.70;99.90
9157;DHT22;4613;48.392;9.998;2023-07-16T16:29:03;24.80;99.90
9157;DHT22;4613;48.392;9.998;2023-07-16T16:31:52;24.80;99.90
9157;DHT22;4613;48.392;9.998;2023-07-16T16:34:45;24.90;99.90
9157;DHT22;4613;48.392;9.998;2023-07-16T16:37:34;24.70;99.90
9157;DHT22;4613;48.392;9.998;2023-07-16T16:40:24;24.70;99.90
9157;DHT22;4613;48.392;9.998;2023-07-16T16:43:13;24.60;99.90
9157;DHT22;4613;48.392;9.998;2023-07-16T16:46:03;24.70;99.90
9157;DHT22;4613;48.392;9.998;2023-07-16T16:48:53;24.70;99.90
9157;DHT22;4613;48.392;9.998;2023-07-16T16:51:42;25.10;99.90
9157;DHT22;4613;48.392;9.998;2023-07-16T16:54:31;25.30;99.90
9157;DHT22;4613;48.392;9.998;2023-07-16T16:57:20;25.10;99.90
9157;DHT22;4613;48.392;9.998;2023-07-16T17:00:10;24.70;99.90
9157;DHT22;4613;48.392;9.998;2023-07-16T17:03:01;24.80;99.90
9157;DHT22;4613;48.392;9.998;2023-07-16T17:05:51;25.10;99.90
9157;DHT22;4613;48.392;9.998;2023-07-16T17:08:45;25.30;99.90
9157;DHT22;4613;48.392;9.998;2023-07-16T17:11:34;25.10;99.90
9157;DHT22;4613;48.392;9.998;2023-07-16T17:14:23;25.20;99.90
9157;DHT22;4613;48.392;9.998;2023-07-16T17:17:13;24.80;99.90
9157;DHT22;4613;48.392;9.998;2023-07-16T17:20:03;24.60;99.90
9157;DHT22;4613;48.392;9.998;2023-07-16T17:22:54;24.60;99.90
9157;DHT22;4613;48.392;9.998;2023-07-16T17:25:44;24.70;99.90
9157;DHT22;4613;48.392;9.998;2023-07-16T17:28:33;24.80;99.90
9157;DHT22;4613;48.392;9.998;2023-07-16T17:31:23;24.60;99.90
9157;DHT22;4613;48.392;9.998;2023-07-16T17:34:12;24.70;99.90
9157;DHT22;4613;48.392;9.998;2023-07-16T17:37:01;24.90;99.90
9157;DHT22;4613;48.392;9.998;2023-07-16T17:39:51;24.90;99.90
9157;DHT22;4613;48.392;9.998;2023-07-16T17:42:41;24.80;99.90
9157;DHT22;4613;48.392;9.998;2023-07-16T17:45:31;24.90;99.90
9157;DHT22;4613;48.392;9.998;2023-07-16T17:48:20;24.60;99.90
9157;DHT22;4613;48.392;9.998;2023-07-16T17:51:09;24.40;99.90
9157;DHT22;4613;48.392;9.998;2023-07-16T17:54:00;24.50;99.90
9157;DHT22;4613;48.392;9.998;2023-07-16T17:56:50;24.60;99.90
9157;DHT22;4613;48.392;9.998;2023-07-16T17:59:42;24.70;99.90
9157;DHT22;4613;48.392;9.998;2023-07-16T18:02:32;24.40;99.90
9157;DHT22;4613;48.392;9.998;2023-07-16T18:05:21;24.40;99.90
9157;DHT22;4613;48.392;9.998;2023-07-16T18:08:12;24.30;99.90
9157;DHT22;4613;48.392;9.998;2023-07-16T18:11:01;24.60;99.90
9157;DHT22;4613;48.392;9.998;2023-07-16T18:13:50;24.70;99.90
9157;DHT22;4613;48.392;9.998;2023-07-16T18:16:39;24.60;99.90
9157;DHT22;4613;48.392;9.998;2023-07-16T18:19:29;24.80;99.90
9157;DHT22;4613;48.392;9.998;2023-07-16T18:22:21;24.90;99.90
9157;DHT22;4613;48.392;9.998;2023-07-16T18:25:10;25.10;99.90
9157;DHT22;4613;48.392;9.998;2023-07-16T18:28:00;25.10;99.90
9157;DHT22;4613;48.392;9.998;2023-07-16T18:30:50;25.00;99.90
9157;DHT22;4613;48.392;9.998;2023-07-16T18:33:39;24.80;99.90
9157;DHT22;4613;48.392;9.998;2023-07-16T18:36:28;24.80;99.90